Time;durP1;ratioP1;P1;durP2;ratioP2;P2;SDS_P1;SDS_P2;PMS_P1;PMS_P2;Temp;Humidity;BMP_temperature;BMP_pressure;BME280_temperature;BME280_humidity;BME280_pressure;Samples;Min_cycle;Max_cycle;Signal;HPM_P1;HPM_P2
2024/04/15 00:00:45;;;;;;;;;;;;;;;20.79;46.98;100995.53;2229332;26;6159;-68
2024/04/15 00:01:47;;;;;;;;;;;;;;;20.79;47.28;100989.03;2235761;26;2199;-69
2024/04/15 00:02:48;;;;;;;;;;;;;;;20.79;46.97;100989.75;2236161;26;2275;-68
2024/04/15 00:03:50;;;;;;;;;;;;;;;20.79;47.32;100989.75;2245483;26;2270;-68
2024/04/15 00:04:51;;;;;;;;;;;;;;;20.77;47.08;100992.53;2237963;26;2422;-68
2024/04/15 00:05:53;;;;;;;;;;;;;;;20.78;46.67;100988.28;2232542;26;2412;-68
2024/04/15 00:06:54;;;;;;;;;;;;;;;20.79;47.34;100986.16;2234841;26;2309;-68
2024/04/15 00:07:56;;;;;;;;;;;;;;;20.79;47.19;100984.00;2238072;26;2314;-69
2024/04/15 00:08:57;;;;;;;;;;;;;;;20.79;47.22;100977.53;2236190;26;2428;-68
2024/04/15 00:09:59;;;;;;;;;;;;;;;20.78;47.31;100985.41;2238184;26;2168;-67
2024/04/15 00:11:04;;;;;;;;;;;;;;;20.78;47.20;100988.28;2240135;26;2409;-68
2024/04/15 00:12:05;;;;;;;;;;;;;;;20.77;46.95;100981.03;2237927;26;2255;-68
2024/04/15 00:13:07;;;;;;;;;;;;;;;20.78;46.93;100976.78;2235178;26;2290;-68
2024/04/15 00:14:08;;;;;;;;;;;;;;;20.77;47.03;100981.03;2236540;26;2202;-68
2024/04/15 00:15:10;;;;;;;;;;;;;;;20.78;47.31;100965.28;2235494;26;2272;-68
2024/04/15 00:16:11;;;;;;;;;;;;;;;20.77;47.22;100966.66;2237217;26;2198;-69
2024/04/15 00:17:13;;;;;;;;;;;;;;;20.76;46.76;100959.41;2239156;26;2289;-68
2024/04/15 00:18:14;;;;;;;;;;;;;;;20.76;47.46;100962.28;2235631;26;2255;-68
2024/04/15 00:19:16;;;;;;;;;;;;;;;20.76;47.15;100961.56;2234934;26;2244;-69
2024/04/15 00:20:17;;;;;;;;;;;;;;;20.76;47.10;100967.31;2238550;26;2285;-68
2024/04/15 00:21:19;;;;;;;;;;;;;;;20.76;47.58;100965.16;2235841;26;2272;-68
2024/04/15 00:22:20;;;;;;;;;;;;;;;20.76;47.16;100964.44;2233607;26;2174;-69
2024/04/15 00:23:22;;;;;;;;;;;;;;;20.76;46.90;100965.16;2236565;26;2299;-68
2024/04/15 00:24:23;;;;;;;;;;;;;;;20.76;46.87;100958.69;2233850;26;2425;-69
2024/04/15 00:25:24;;;;;;;;;;;;;;;20.76;47.33;100962.28;2232295;26;2350;-69
2024/04/15 00:26:26;;;;;;;;;;;;;;;20.75;47.39;100955.03;2231099;26;2049;-68
2024/04/15 00:27:27;;;;;;;;;;;;;;;20.75;47.20;100955.03;2237133;26;2266;-68
2024/04/15 00:28:29;;;;;;;;;;;;;;;20.75;47.11;100962.94;2237171;26;2271;-68
2024/04/15 00:29:30;;;;;;;;;;;;;;;20.75;47.28;100957.91;2237382;26;2287;-68
2024/04/15 00:30:32;;;;;;;;;;;;;;;20.75;47.28;100952.16;2236892;26;5989;-68
2024/04/15 00:31:34;;;;;;;;;;;;;;;20.75;46.97;100960.78;2236749;26;2374;-68
2024/04/15 00:32:35;;;;;;;;;;;;;;;20.75;47.23;100957.19;2238305;26;2255;-68
2024/04/15 00:33:37;;;;;;;;;;;;;;;20.75;47.38;100960.78;2236467;26;2386;-68
2024/04/15 00:34:38;;;;;;;;;;;;;;;20.75;47.40;100955.03;2234673;26;2433;-68
2024/04/15 00:35:43;;;;;;;;;;;;;;;20.74;47.21;100952.81;2241472;26;2305;-68
2024/04/15 00:36:45;;;;;;;;;;;;;;;20.75;47.30;100955.03;2237597;26;2245;-68
2024/04/15 00:37:46;;;;;;;;;;;;;;;20.75;47.21;100960.06;2236046;26;2455;-68
2024/04/15 00:38:48;;;;;;;;;;;;;;;20.74;47.54;100967.94;2237284;26;2367;-68
2024/04/15 00:39:49;;;;;;;;;;;;;;;20.75;47.04;100965.81;2234182;26;2452;-68
2024/04/15 00:40:51;;;;;;;;;;;;;;;20.74;47.33;100967.94;2235873;26;2396;-68
2024/04/15 00:41:52;;;;;;;;;;;;;;;20.73;47.15;100969.34;2237871;26;2171;-68
2024/04/15 00:42:55;;;;;;;;;;;;;;;20.74;47.46;100975.84;2238075;26;2385;-68
2024/04/15 00:43:57;;;;;;;;;;;;;;;20.73;47.34;100975.13;2239055;26;2403;-68
2024/04/15 00:44:58;;;;;;;;;;;;;;;20.74;47.64;100970.84;2240109;26;2330;-68
2024/04/15 00:46:00;;;;;;;;;;;;;;;20.74;47.36;100970.09;2237275;26;2281;-68
2024/04/15 00:47:02;;;;;;;;;;;;;;;20.74;47.49;100970.84;2236878;26;2187;-68
2024/04/15 00:48:04;;;;;;;;;;;;;;;20.73;47.20;100968.59;2237818;26;2198;-68
2024/04/15 00:49:06;;;;;;;;;;;;;;;20.73;47.26;100969.34;2236863;26;2354;-68
2024/04/15 00:50:07;;;;;;;;;;;;;;;20.73;47.47;100962.84;2236265;26;2236;-68
2024/04/15 00:51:09;;;;;;;;;;;;;;;20.72;47.32;100956.34;2234647;26;2272;-68
2024/04/15 00:52:12;;;;;;;;;;;;;;;20.73;46.90;100946.34;2237671;26;2207;-68
2024/04/15 00:53:14;;;;;;;;;;;;;;;20.71;47.17;100943.38;2236911;26;2162;-67
2024/04/15 00:54:16;;;;;;;;;;;;;;;20.71;47.07;100952.00;2234067;26;2436;-68
2024/04/15 00:55:18;;;;;;;;;;;;;;;20.70;46.92;100942.59;2234924;26;2569;-68
2024/04/15 00:56:20;;;;;;;;;;;;;;;20.71;47.49;100943.38;2241112;26;2402;-69
2024/04/15 00:57:22;;;;;;;;;;;;;;;20.70;47.25;100936.09;2234841;26;2509;-69
2024/04/15 00:58:24;;;;;;;;;;;;;;;20.71;47.69;100943.38;2232799;26;2152;-69
2024/04/15 00:59:26;;;;;;;;;;;;;;;20.70;47.39;100936.09;2243014;26;2265;-68
2024/04/15 01:00:28;;;;;;;;;;;;;;;20.70;47.33;100941.88;2240835;26;5900;-68
2024/04/15 01:01:29;;;;;;;;;;;;;;;20.70;47.19;100948.34;2230740;26;2315;-68
2024/04/15 01:02:31;;;;;;;;;;;;;;;20.70;46.97;100941.88;2233460;26;2292;-68
2024/04/15 01:03:32;;;;;;;;;;;;;;;20.69;47.24;100940.38;2230489;26;2231;-68
2024/04/15 01:04:34;;;;;;;;;;;;;;;20.68;47.49;100936.78;2233062;26;2442;-68
2024/04/15 01:05:35;;;;;;;;;;;;;;;20.70;47.26;100938.97;2237546;26;2349;-68
2024/04/15 01:06:38;;;;;;;;;;;;;;;20.69;47.09;100943.25;2237274;26;2323;-68
2024/04/15 01:07:39;;;;;;;;;;;;;;;20.69;47.42;100943.25;2236808;26;2496;-68
2024/04/15 01:08:41;;;;;;;;;;;;;;;20.70;47.41;100942.59;2236398;26;2598;-69
2024/04/15 01:09:42;;;;;;;;;;;;;;;20.70;47.40;100942.59;2240216;26;2333;-68
2024/04/15 01:10:44;;;;;;;;;;;;;;;20.69;47.25;100940.38;2244885;26;2116;-68
2024/04/15 01:12:00;;;;;;;;;;;;;;;20.69;47.03;100946.88;2237128;26;2134;-69
2024/04/15 01:13:01;;;;;;;;;;;;;;;20.68;47.47;100936.78;2235470;26;2148;-68
2024/04/15 01:14:03;;;;;;;;;;;;;;;20.68;47.75;100933.13;2237795;26;2116;-68
2024/04/15 01:15:05;;;;;;;;;;;;;;;20.68;47.45;100936.00;2238256;26;2321;-68
2024/04/15 01:16:06;;;;;;;;;;;;;;;20.68;47.47;100933.13;2236399;26;2166;-68
2024/04/15 01:17:08;;;;;;;;;;;;;;;20.67;47.51;100932.41;2234742;26;2287;-69
2024/04/15 01:18:09;;;;;;;;;;;;;;;20.68;47.14;100927.38;2235102;26;2380;-68
2024/04/15 01:19:11;;;;;;;;;;;;;;;20.67;47.03;100926.63;2237032;26;2029;-68
2024/04/15 01:20:13;;;;;;;;;;;;;;;20.67;47.58;100940.28;2244394;26;2371;-68
2024/04/15 01:21:14;;;;;;;;;;;;;;;20.67;47.63;100937.41;2237760;26;2209;-68
2024/04/15 01:22:19;;;;;;;;;;;;;;;20.66;47.09;100928.03;2238063;26;2369;-68
2024/04/15 01:23:26;;;;;;;;;;;;;;;20.67;47.20;100925.91;2235539;26;2101;-68
2024/04/15 01:24:28;;;;;;;;;;;;;;;20.67;47.46;100928.78;2236030;26;2293;-68
2024/04/15 01:25:29;;;;;;;;;;;;;;;20.66;47.53;100925.16;2241578;26;2239;-68
2024/04/15 01:26:31;;;;;;;;;;;;;;;20.67;47.71;100928.78;2235343;26;2217;-68
2024/04/15 01:27:32;;;;;;;;;;;;;;;20.66;47.53;100922.28;2232173;26;2403;-68
2024/04/15 01:28:34;;;;;;;;;;;;;;;20.66;47.33;100925.16;2232875;26;2330;-68
2024/04/15 01:29:35;;;;;;;;;;;;;;;20.68;47.80;100915.88;2230627;26;2351;-69
2024/04/15 01:30:37;;;;;;;;;;;;;;;20.65;47.07;100917.91;2234700;26;5823;-68
2024/04/15 01:31:38;;;;;;;;;;;;;;;20.66;47.48;100928.03;2236118;26;2233;-68
2024/04/15 01:32:40;;;;;;;;;;;;;;;20.66;47.66;100925.16;2237779;26;2212;-68
2024/04/15 01:33:41;;;;;;;;;;;;;;;20.66;47.74;100918.66;2235020;26;2214;-68
2024/04/15 01:34:43;;;;;;;;;;;;;;;20.65;47.44;100917.91;2243315;26;2241;-69
2024/04/15 01:35:44;;;;;;;;;;;;;;;20.66;47.45;100910.03;2236520;26;2238;-68
2024/04/15 01:36:46;;;;;;;;;;;;;;;20.66;47.78;100910.03;2237041;26;2095;-68
2024/04/15 01:37:50;;;;;;;;;;;;;;;20.65;47.49;100894.16;2235011;26;2464;-68
2024/04/15 01:38:52;;;;;;;;;;;;;;;20.64;47.83;100899.19;2235140;26;2288;-68
2024/04/15 01:39:53;;;;;;;;;;;;;;;20.64;47.46;100896.28;2233049;26;2342;-68
2024/04/15 01:40:55;;;;;;;;;;;;;;;20.66;47.49;100884.13;2231766;26;2212;-69
2024/04/15 01:41:56;;;;;;;;;;;;;;;20.64;47.18;100893.41;2234684;26;2167;-68
2024/04/15 01:42:58;;;;;;;;;;;;;;;20.65;47.52;100905.66;2236473;26;2178;-68
2024/04/15 01:43:59;;;;;;;;;;;;;;;20.65;47.91;100906.41;2236134;26;2281;-68
2024/04/15 01:45:00;;;;;;;;;;;;;;;20.64;47.38;100899.19;2236514;26;2224;-68
2024/04/15 01:46:02;;;;;;;;;;;;;;;20.64;47.63;100896.28;2235182;26;2453;-68
2024/04/15 01:47:04;;;;;;;;;;;;;;;20.65;47.44;100899.91;2236295;26;2257;-68
2024/04/15 01:48:06;;;;;;;;;;;;;;;20.64;47.34;100892.69;2230274;26;2420;-68
2024/04/15 01:49:07;;;;;;;;;;;;;;;20.65;47.64;100894.16;2237874;26;2188;-68
2024/04/15 01:50:09;;;;;;;;;;;;;;;20.64;47.44;100907.06;2233332;26;2487;-68
2024/04/15 01:51:10;;;;;;;;;;;;;;;20.64;47.30;100904.19;2236852;26;2189;-68
2024/04/15 01:52:12;;;;;;;;;;;;;;;20.64;47.48;100896.28;2235533;26;2613;-68
2024/04/15 01:53:13;;;;;;;;;;;;;;;20.64;47.82;100892.69;2239462;26;2538;-68
2024/04/15 01:54:15;;;;;;;;;;;;;;;20.64;47.40;100889.81;2234720;26;2274;-68
2024/04/15 01:55:16;;;;;;;;;;;;;;;20.64;47.96;100881.19;2245740;26;2087;-68
2024/04/15 01:56:18;;;;;;;;;;;;;;;20.62;47.62;100878.94;2235999;26;2213;-69
2024/04/15 01:57:19;;;;;;;;;;;;;;;20.63;47.26;100891.19;2233167;26;2197;-68
2024/04/15 01:58:21;;;;;;;;;;;;;;;20.63;47.70;100885.44;2235586;26;2366;-68
2024/04/15 01:59:23;;;;;;;;;;;;;;;20.63;47.46;100880.41;2236329;26;2401;-68
2024/04/15 02:00:24;;;;;;;;;;;;;;;20.62;47.14;100875.31;2234768;26;6087;-68
2024/04/15 02:01:26;;;;;;;;;;;;;;;20.63;47.97;100876.78;2235476;26;2093;-68
2024/04/15 02:02:27;;;;;;;;;;;;;;;20.62;47.23;100873.19;2238372;26;2138;-68
2024/04/15 02:03:29;;;;;;;;;;;;;;;20.62;47.78;100873.19;2236736;26;2319;-68
2024/04/15 02:04:31;;;;;;;;;;;;;;;20.62;47.50;100866.69;2234630;26;2121;-68
2024/04/15 02:05:33;;;;;;;;;;;;;;;20.63;47.65;100871.03;2230816;26;2095;-68
2024/04/15 02:06:35;;;;;;;;;;;;;;;20.62;47.20;100866.69;2240227;26;2191;-68
2024/04/15 02:07:36;;;;;;;;;;;;;;;20.63;47.98;100857.41;2234910;26;2253;-68
2024/04/15 02:08:38;;;;;;;;;;;;;;;20.61;47.35;100854.44;2233745;26;2424;-68
2024/04/15 02:09:39;;;;;;;;;;;;;;;20.60;47.77;100855.09;2237085;26;2207;-68
2024/04/15 02:10:41;;;;;;;;;;;;;;;20.62;47.35;100855.19;2236569;26;2221;-68
2024/04/15 02:11:42;;;;;;;;;;;;;;;20.60;47.64;100852.94;2235153;26;2234;-68
2024/04/15 02:12:43;;;;;;;;;;;;;;;20.62;47.22;100849.44;2238179;26;2261;-68
2024/04/15 02:13:45;;;;;;;;;;;;;;;20.61;47.85;100845.06;2239742;26;2196;-68
2024/04/15 02:14:46;;;;;;;;;;;;;;;20.60;47.69;100834.94;2236198;26;2143;-68
2024/04/15 02:15:48;;;;;;;;;;;;;;;20.60;47.24;100837.84;2235739;26;2434;-68
2024/04/15 02:16:49;;;;;;;;;;;;;;;20.61;47.85;100842.19;2237181;26;2259;-68
2024/04/15 02:17:51;;;;;;;;;;;;;;;20.61;47.65;100847.94;2235650;26;2092;-68
2024/04/15 02:18:53;;;;;;;;;;;;;;;20.61;47.64;100845.06;2237742;26;2391;-68
2024/04/15 02:19:54;;;;;;;;;;;;;;;20.61;47.41;100842.91;2234895;26;2589;-68
2024/04/15 02:20:56;;;;;;;;;;;;;;;20.61;47.35;100853.69;2236036;26;2231;-68
2024/04/15 02:21:57;;;;;;;;;;;;;;;20.61;47.40;100845.06;2235990;26;2338;-68
2024/04/15 02:22:59;;;;;;;;;;;;;;;20.59;47.93;100845.72;2235802;26;2254;-68
2024/04/15 02:24:00;;;;;;;;;;;;;;;20.61;47.81;100845.06;2234927;26;2354;-68
2024/04/15 02:25:03;;;;;;;;;;;;;;;20.60;47.47;100846.47;2235007;26;2327;-68
2024/04/15 02:26:05;;;;;;;;;;;;;;;20.60;47.80;100846.47;2241435;26;2112;-67
2024/04/15 02:27:06;;;;;;;;;;;;;;;20.59;48.06;100854.34;2235925;26;2167;-68
2024/04/15 02:28:08;;;;;;;;;;;;;;;20.60;48.03;100849.34;2236151;26;2151;-68
2024/04/15 02:29:09;;;;;;;;;;;;;;;20.60;47.73;100857.97;2236598;26;2097;-68
2024/04/15 02:30:11;;;;;;;;;;;;;;;20.60;47.48;100852.22;2228218;26;7384;-68
2024/04/15 02:31:12;;;;;;;;;;;;;;;20.60;47.23;100852.22;2235723;26;2343;-68
2024/04/15 02:32:14;;;;;;;;;;;;;;;20.59;47.44;100850.72;2230667;26;2216;-68
2024/04/15 02:33:15;;;;;;;;;;;;;;;20.59;47.41;100833.44;2227742;26;2093;-69
2024/04/15 02:34:17;;;;;;;;;;;;;;;20.58;47.67;100844.22;2233049;26;2280;-68
2024/04/15 02:35:19;;;;;;;;;;;;;;;20.60;48.00;100852.22;2227937;26;2195;-63
2024/04/15 02:36:21;;;;;;;;;;;;;;;20.59;47.57;100844.97;2236838;26;2156;-63
2024/04/15 02:37:22;;;;;;;;;;;;;;;20.59;47.59;100839.22;2232750;26;2498;-67
2024/04/15 02:38:24;;;;;;;;;;;;;;;20.59;47.78;100839.22;2233642;26;2430;-69
2024/04/15 02:39:25;;;;;;;;;;;;;;;20.59;48.12;100850.72;2235431;26;2329;-63
2024/04/15 02:40:27;;;;;;;;;;;;;;;20.59;47.82;100839.22;2235773;26;2438;-63
2024/04/15 02:41:28;;;;;;;;;;;;;;;20.58;47.26;100841.34;2234602;26;2389;-63
2024/04/15 02:42:30;;;;;;;;;;;;;;;20.57;47.75;100842.00;2226884;26;2214;-63
2024/04/15 02:43:31;;;;;;;;;;;;;;;20.57;47.77;100837.00;2232098;26;2270;-63
2024/04/15 02:44:32;;;;;;;;;;;;;;;20.58;47.89;100834.84;2235615;26;2175;-63
2024/04/15 02:45:34;;;;;;;;;;;;;;;20.57;47.48;100827.59;2240536;26;2220;-63
2024/04/15 02:46:35;;;;;;;;;;;;;;;20.57;48.06;100828.38;2234704;26;2426;-63
2024/04/15 02:47:37;;;;;;;;;;;;;;;20.57;47.75;100822.63;2236709;26;2151;-63
2024/04/15 02:48:39;;;;;;;;;;;;;;;20.58;47.52;100817.59;2233818;26;2451;-63
2024/04/15 02:49:40;;;;;;;;;;;;;;;20.59;47.98;100819.06;2226983;26;2378;-63
2024/04/15 02:50:42;;;;;;;;;;;;;;;20.59;47.93;100822.72;2234080;26;2625;-63
2024/04/15 02:51:43;;;;;;;;;;;;;;;20.61;47.76;100822.03;2235999;26;2107;-63
2024/04/15 02:52:44;;;;;;;;;;;;;;;20.62;47.69;100820.66;2231468;26;2341;-63
2024/04/15 02:53:46;;;;;;;;;;;;;;;20.63;47.63;100822.13;2226831;26;2444;-63
2024/04/15 02:54:47;;;;;;;;;;;;;;;20.63;47.81;100825.75;2235434;26;2331;-63
2024/04/15 02:55:51;;;;;;;;;;;;;;;20.64;47.56;100829.38;2232828;26;2232;-63
2024/04/15 02:56:53;;;;;;;;;;;;;;;20.65;47.86;100830.84;2235351;26;2106;-63
2024/04/15 02:57:54;;;;;;;;;;;;;;;20.65;48.01;100827.97;2234815;26;2138;-63
2024/04/15 02:58:56;;;;;;;;;;;;;;;20.66;47.80;100815.06;2234930;26;2112;-63
2024/04/15 02:59:57;;;;;;;;;;;;;;;20.64;47.54;100818.63;2237390;26;2391;-64
2024/04/15 03:00:59;;;;;;;;;;;;;;;20.66;47.40;100824.47;2222980;26;5810;-63
2024/04/15 03:02:00;;;;;;;;;;;;;;;20.67;47.32;100819.44;2228645;26;2112;-63
2024/04/15 03:03:02;;;;;;;;;;;;;;;20.67;47.11;100817.31;2222475;26;2110;-63
2024/04/15 03:04:04;;;;;;;;;;;;;;;20.70;47.90;100809.50;2221424;26;2280;-63
2024/04/15 03:05:06;;;;;;;;;;;;;;;20.68;47.35;100807.28;2229537;26;2415;-63
2024/04/15 03:06:07;;;;;;;;;;;;;;;20.69;47.47;100799.41;2214962;26;2187;-63
2024/04/15 03:07:09;;;;;;;;;;;;;;;20.70;47.21;100803.75;2222681;26;2243;-63
2024/04/15 03:08:10;;;;;;;;;;;;;;;20.69;47.56;100790.75;2223173;26;2393;-63
2024/04/15 03:09:12;;;;;;;;;;;;;;;20.71;47.11;100805.25;2217149;26;2447;-63
2024/04/15 03:10:14;;;;;;;;;;;;;;;20.70;47.65;100815.25;2231036;26;2106;-63
2024/04/15 03:11:16;;;;;;;;;;;;;;;20.70;47.36;100816.00;2223079;26;2308;-63
2024/04/15 03:12:17;;;;;;;;;;;;;;;20.69;47.61;100813.78;2222127;26;2209;-63
2024/04/15 03:13:19;;;;;;;;;;;;;;;20.71;47.45;100816.75;2219453;26;2222;-63
2024/04/15 03:14:20;;;;;;;;;;;;;;;20.70;47.44;100807.34;2221120;26;2145;-64
2024/04/15 03:15:22;;;;;;;;;;;;;;;20.69;47.86;100790.75;2220607;26;2401;-63
2024/04/15 03:16:23;;;;;;;;;;;;;;;20.70;47.63;100786.47;2224955;26;2285;-63
2024/04/15 03:17:28;;;;;;;;;;;;;;;20.70;47.87;100778.59;2219463;26;2189;-63
2024/04/15 03:18:30;;;;;;;;;;;;;;;20.70;47.39;100780.72;2230939;26;2348;-64
2024/04/15 03:19:31;;;;;;;;;;;;;;;20.70;47.82;100780.72;2219054;26;2366;-63
2024/04/15 03:20:33;;;;;;;;;;;;;;;20.70;47.84;100774.97;2220228;26;2112;-63
2024/04/15 03:21:34;;;;;;;;;;;;;;;20.70;47.45;100786.47;2217156;26;2304;-63
2024/04/15 03:22:35;;;;;;;;;;;;;;;20.68;48.14;100772.75;2229752;26;2285;-63
2024/04/15 03:23:37;;;;;;;;;;;;;;;20.69;47.93;100773.50;2223859;26;2123;-63
2024/04/15 03:24:38;;;;;;;;;;;;;;;20.70;47.63;100766.34;2221050;26;2386;-63
2024/04/15 03:25:40;;;;;;;;;;;;;;;20.68;47.81;100761.25;2221522;26;2272;-63
2024/04/15 03:26:42;;;;;;;;;;;;;;;20.70;47.80;100766.34;2224138;26;2247;-63
2024/04/15 03:27:43;;;;;;;;;;;;;;;20.68;47.86;100749.75;2220131;26;2173;-63
2024/04/15 03:28:45;;;;;;;;;;;;;;;20.69;47.76;100750.47;2219766;26;2297;-64
2024/04/15 03:29:46;;;;;;;;;;;;;;;20.68;47.75;100743.22;2220504;26;2742;-63
2024/04/15 03:30:48;;;;;;;;;;;;;;;20.70;47.74;100746.94;2219243;26;5878;-63
2024/04/15 03:31:53;;;;;;;;;;;;;;;20.70;47.82;100740.44;2215756;26;2678;-63
2024/04/15 03:32:54;;;;;;;;;;;;;;;20.70;47.73;100746.19;2223825;26;2115;-63
2024/04/15 03:33:56;;;;;;;;;;;;;;;20.71;47.71;100745.56;2222001;26;2306;-63
2024/04/15 03:34:57;;;;;;;;;;;;;;;20.72;47.88;100737.66;2220667;26;2558;-63
2024/04/15 03:35:59;;;;;;;;;;;;;;;20.71;47.45;100741.94;2220524;26;2378;-63
2024/04/15 03:37:00;;;;;;;;;;;;;;;20.73;47.27;100739.16;2218968;26;2362;-63
2024/04/15 03:38:02;;;;;;;;;;;;;;;20.72;47.25;100743.41;2222820;26;2348;-63
2024/04/15 03:39:03;;;;;;;;;;;;;;;20.74;47.57;100740.63;2218635;26;2133;-63
2024/04/15 03:40:05;;;;;;;;;;;;;;;20.74;47.25;100737.00;2224220;26;2306;-63
2024/04/15 03:41:08;;;;;;;;;;;;;;;20.74;47.80;100729.13;2225891;26;2333;-64
2024/04/15 03:42:09;;;;;;;;;;;;;;;20.74;47.70;100726.22;2222284;26;2216;-63
2024/04/15 03:43:10;;;;;;;;;;;;;;;20.74;47.88;100717.59;2217016;26;2241;-63
2024/04/15 03:44:12;;;;;;;;;;;;;;;20.74;47.64;100708.97;2227816;26;2205;-63
2024/04/15 03:45:13;;;;;;;;;;;;;;;20.74;47.64;100711.84;2219069;26;2314;-63
2024/04/15 03:46:15;;;;;;;;;;;;;;;20.76;47.96;100702.56;2224793;26;2325;-63
2024/04/15 03:47:17;;;;;;;;;;;;;;;20.75;47.73;100696.06;2221222;26;2154;-63
2024/04/15 03:48:18;;;;;;;;;;;;;;;20.75;47.72;100701.81;2221131;26;2432;-63
2024/04/15 03:49:20;;;;;;;;;;;;;;;20.75;47.38;100701.81;2218929;26;2252;-63
2024/04/15 03:50:23;;;;;;;;;;;;;;;20.76;47.89;100696.81;2219918;26;2519;-63
2024/04/15 03:51:24;;;;;;;;;;;;;;;20.76;47.74;100693.94;2221042;26;2251;-63
2024/04/15 03:52:26;;;;;;;;;;;;;;;20.75;47.76;100698.19;2221511;26;2144;-63
2024/04/15 03:53:27;;;;;;;;;;;;;;;20.76;47.96;100685.31;2222224;26;2043;-63
2024/04/15 03:54:31;;;;;;;;;;;;;;;20.76;48.04;100691.78;2221329;26;2370;-63
2024/04/15 03:55:33;;;;;;;;;;;;;;;20.75;48.07;100684.53;2222737;26;2262;-63
2024/04/15 03:56:34;;;;;;;;;;;;;;;20.75;47.98;100690.28;2222342;26;2024;-63
2024/04/15 03:57:36;;;;;;;;;;;;;;;20.75;48.15;100690.28;2221485;26;2068;-63
2024/04/15 03:58:37;;;;;;;;;;;;;;;20.75;47.82;100693.16;2222864;26;2063;-63
2024/04/15 03:59:38;;;;;;;;;;;;;;;20.75;48.08;100680.94;2220292;26;2269;-63
2024/04/15 04:00:40;;;;;;;;;;;;;;;20.73;47.88;100693.09;2216175;26;5822;-63
2024/04/15 04:01:41;;;;;;;;;;;;;;;20.75;48.06;100687.41;2219764;26;2533;-63
2024/04/15 04:02:43;;;;;;;;;;;;;;;20.73;47.88;100684.47;2221998;26;2473;-63
2024/04/15 04:03:44;;;;;;;;;;;;;;;20.74;47.82;100683.06;2218152;26;2251;-63
2024/04/15 04:04:46;;;;;;;;;;;;;;;20.74;47.56;100688.81;2217385;26;2347;-63
2024/04/15 04:05:55;;;;;;;;;;;;;;;20.75;47.93;100683.81;2218660;26;2252;-63
2024/04/15 04:07:12;;;;;;;;;;;;;;;20.76;47.75;100679.56;2214252;26;2139;-63
2024/04/15 04:08:13;;;;;;;;;;;;;;;20.75;47.73;100690.28;2219171;26;2340;-63
2024/04/15 04:09:15;;;;;;;;;;;;;;;20.76;47.62;100682.41;2221361;26;2253;-63
2024/04/15 04:10:16;;;;;;;;;;;;;;;20.76;47.87;100682.41;2216545;26;2125;-64
2024/04/15 04:11:22;;;;;;;;;;;;;;;20.76;47.59;100680.28;2219761;26;2243;-63
2024/04/15 04:12:23;;;;;;;;;;;;;;;20.76;47.70;100674.53;2221123;26;2251;-63
2024/04/15 04:13:25;;;;;;;;;;;;;;;20.77;47.82;100676.00;2222545;26;2295;-63
2024/04/15 04:14:27;;;;;;;;;;;;;;;20.77;47.74;100681.75;2223750;26;2114;-63
2024/04/15 04:15:29;;;;;;;;;;;;;;;20.77;48.04;100684.63;2220806;26;2235;-63
2024/04/15 04:16:30;;;;;;;;;;;;;;;20.78;47.63;100689.00;2224175;26;2276;-63
2024/04/15 04:17:32;;;;;;;;;;;;;;;20.79;47.63;100689.75;2222086;26;2144;-64
2024/04/15 04:18:33;;;;;;;;;;;;;;;20.78;48.05;100697.63;2225693;26;2403;-64
2024/04/15 04:19:35;;;;;;;;;;;;;;;20.78;47.82;100694.75;2219113;26;2415;-63
2024/04/15 04:20:36;;;;;;;;;;;;;;;20.79;48.01;100696.22;2221000;26;2246;-63
2024/04/15 04:21:38;;;;;;;;;;;;;;;20.78;48.20;100694.75;2223034;26;2450;-63
2024/04/15 04:22:39;;;;;;;;;;;;;;;20.79;48.10;100704.84;2223843;26;2223;-63
2024/04/15 04:23:41;;;;;;;;;;;;;;;20.79;48.34;100707.75;2222404;26;2076;-64
2024/04/15 04:24:42;;;;;;;;;;;;;;;20.79;47.90;100701.25;2222770;26;2158;-63
2024/04/15 04:25:44;;;;;;;;;;;;;;;20.79;48.07;100713.50;2212881;26;1953;-63
2024/04/15 04:26:45;;;;;;;;;;;;;;;20.79;47.73;100710.63;2222483;26;2247;-63
2024/04/15 04:27:46;;;;;;;;;;;;;;;20.79;48.03;100707.00;2223806;26;2291;-63
2024/04/15 04:28:48;;;;;;;;;;;;;;;20.78;48.23;100712.03;2220759;26;2302;-63
2024/04/15 04:29:49;;;;;;;;;;;;;;;20.78;47.83;100717.78;2219396;26;2533;-64
2024/04/15 04:30:51;;;;;;;;;;;;;;;20.78;48.12;100720.66;2221778;26;6513;-63
2024/04/15 04:31:52;;;;;;;;;;;;;;;20.78;47.95;100725.69;2221545;26;2377;-63
2024/04/15 04:32:54;;;;;;;;;;;;;;;20.79;48.06;100727.16;2224805;26;2561;-63
2024/04/15 04:33:56;;;;;;;;;;;;;;;20.79;47.94;100727.16;2226751;26;2265;-64
2024/04/15 04:34:57;;;;;;;;;;;;;;;20.76;48.11;100725.59;2220506;26;2281;-63
2024/04/15 04:35:59;;;;;;;;;;;;;;;20.77;47.85;100727.78;2221145;26;2578;-63
2024/04/15 04:37:01;;;;;;;;;;;;;;;20.72;48.36;100731.91;2221516;26;2438;-62
2024/04/15 04:38:02;;;;;;;;;;;;;;;20.78;48.45;100734.31;2218593;26;2333;-63
2024/04/15 04:39:04;;;;;;;;;;;;;;;20.83;48.06;100730.19;2220399;26;2365;-63
2024/04/15 04:40:06;;;;;;;;;;;;;;;20.78;48.56;100729.28;2219834;26;2298;-68
2024/04/15 04:41:07;;;;;;;;;;;;;;;20.80;48.69;100731.50;2216463;26;2132;-62
2024/04/15 04:42:09;;;;;;;;;;;;;;;20.75;48.51;100727.69;2220520;26;2347;-63
2024/04/15 04:43:10;;;;;;;;;;;;;;;20.74;48.33;100720.47;2220572;26;2331;-63
2024/04/15 04:44:12;;;;;;;;;;;;;;;20.72;48.59;100720.38;2215612;26;2672;-62
2024/04/15 04:45:13;;;;;;;;;;;;;;;20.74;48.34;100717.59;2222319;26;2198;-64
2024/04/15 04:46:15;;;;;;;;;;;;;;;20.73;47.95;100718.25;2219508;26;2300;-64
2024/04/15 04:47:19;;;;;;;;;;;;;;;20.74;48.30;100723.34;2213354;26;2173;-65
2024/04/15 04:48:20;;;;;;;;;;;;;;;20.70;48.61;100717.41;2218408;26;2215;-63
2024/04/15 04:49:22;;;;;;;;;;;;;;;20.64;47.87;100720.78;2219007;26;2023;-63
2024/04/15 04:50:23;;;;;;;;;;;;;;;20.61;48.59;100729.97;2214141;26;2701;-63
2024/04/15 04:51:25;;;;;;;;;;;;;;;20.60;48.72;100731.38;2218820;26;2439;-64
2024/04/15 04:52:27;;;;;;;;;;;;;;;20.63;48.12;100735.81;2216180;26;2275;-64
2024/04/15 04:53:28;;;;;;;;;;;;;;;20.64;47.81;100737.31;2220678;26;2145;-64
2024/04/15 04:54:30;;;;;;;;;;;;;;;20.66;47.72;100737.38;2219412;26;2168;-64
2024/04/15 04:55:36;;;;;;;;;;;;;;;20.66;47.63;100738.16;2226339;26;2209;-64
2024/04/15 04:56:39;;;;;;;;;;;;;;;20.68;47.66;100737.47;2220424;26;2259;-64
2024/04/15 04:57:41;;;;;;;;;;;;;;;20.69;47.69;100744.72;2225593;26;2233;-64
2024/04/15 04:58:43;;;;;;;;;;;;;;;20.69;47.24;100744.72;2222978;26;2099;-64
2024/04/15 04:59:44;;;;;;;;;;;;;;;20.70;47.65;100740.44;2214813;26;2271;-64
2024/04/15 05:00:46;;;;;;;;;;;;;;;20.71;47.23;100741.94;2222129;26;6098;-64
2024/04/15 05:01:47;;;;;;;;;;;;;;;20.70;47.18;100740.44;2220878;26;2337;-64
2024/04/15 05:02:49;;;;;;;;;;;;;;;20.71;47.43;100742.66;2228903;26;2218;-64
2024/04/15 05:03:51;;;;;;;;;;;;;;;20.72;47.39;100743.41;2221819;26;2092;-64
2024/04/15 05:04:52;;;;;;;;;;;;;;;20.71;46.99;100750.56;2225707;26;2205;-64
2024/04/15 05:05:54;;;;;;;;;;;;;;;20.71;47.07;100741.94;2214511;26;2012;-64
2024/04/15 05:06:55;;;;;;;;;;;;;;;20.72;47.31;100743.41;2222711;26;2375;-64
2024/04/15 05:07:57;;;;;;;;;;;;;;;20.71;47.40;100745.56;2219975;26;2406;-64
2024/04/15 05:08:58;;;;;;;;;;;;;;;20.70;47.00;100746.94;2220890;26;2325;-64
2024/04/15 05:10:00;;;;;;;;;;;;;;;20.71;47.14;100741.94;2217200;26;2267;-64
2024/04/15 05:11:02;;;;;;;;;;;;;;;20.72;47.21;100743.41;2220929;26;2182;-64
2024/04/15 05:12:03;;;;;;;;;;;;;;;20.71;47.32;100741.94;2222422;26;2131;-64
2024/04/15 05:13:05;;;;;;;;;;;;;;;20.71;47.10;100742.66;2218994;26;2215;-64
2024/04/15 05:14:06;;;;;;;;;;;;;;;20.73;47.30;100744.16;2216148;26;2156;-64
2024/04/15 05:15:08;;;;;;;;;;;;;;;20.73;47.53;100742.03;2216276;26;2256;-64
2024/04/15 05:16:10;;;;;;;;;;;;;;;20.73;47.68;100739.16;2221082;26;2040;-64
2024/04/15 05:17:11;;;;;;;;;;;;;;;20.72;47.38;100737.66;2220628;26;2019;-64
2024/04/15 05:18:13;;;;;;;;;;;;;;;20.74;47.42;100734.13;2225665;26;2275;-64
2024/04/15 05:19:14;;;;;;;;;;;;;;;20.73;47.77;100733.41;2213980;26;2260;-64
2024/04/15 05:20:16;;;;;;;;;;;;;;;20.75;47.19;100730.56;2219966;26;2152;-64
2024/04/15 05:21:17;;;;;;;;;;;;;;;20.75;47.53;100727.69;2222169;26;1953;-64
2024/04/15 05:22:19;;;;;;;;;;;;;;;20.75;47.46;100730.56;2221530;26;2222;-64